createdAt,value
2018-12-15T00:00:33.287Z,80.98
2018-12-15T00:01:33.281Z,80.88
2018-12-15T00:02:33.025Z,81.07
2018-12-15T00:03:33.011Z,80.51
2018-12-15T00:04:32.998Z,81.26
2018-12-15T00:05:33.232Z,82.12
2018-12-15T00:06:32.975Z,82.78
2018-12-15T00:07:33.213Z,82.5
2018-12-15T00:08:33.218Z,82.87
2018-12-15T00:09:33.176Z,82.97
2018-12-15T00:10:33.167Z,84.58
2018-12-15T00:11:33.162Z,84.86
2018-12-15T00:12:33.157Z,84.95
2018-12-15T00:13:33.135Z,83.72
2018-12-15T00:14:33.118Z,82.87
2018-12-15T00:15:33.104Z,82.12
2018-12-15T00:16:33.094Z,82.21
2018-12-15T00:17:33.090Z,81.55
2018-12-15T00:18:32.820Z,81.93
2018-12-15T00:19:33.065Z,81.93
2018-12-15T00:20:32.799Z,82.31
2018-12-15T00:21:33.040Z,81.55
2018-12-15T00:22:32.773Z,81.74
2018-12-15T00:23:33.018Z,81.83
2018-12-15T00:24:33.011Z,81.45
2018-12-15T00:25:32.743Z,81.17
2018-12-15T00:26:32.986Z,80.88
2018-12-15T00:27:32.961Z,80.22
2018-12-15T00:28:32.704Z,79.75
2018-12-15T00:29:32.946Z,79.75
2018-12-15T00:30:32.692Z,78.99
2018-12-15T00:31:32.911Z,79.37
2018-12-15T00:32:32.902Z,79.47
2018-12-15T00:33:32.903Z,79.18
2018-12-15T00:34:32.885Z,79.28
2018-12-15T00:35:32.635Z,79.56
2018-12-15T00:36:32.623Z,79.85
2018-12-15T00:37:32.860Z,80.22
2018-12-15T00:38:32.603Z,80.32
2018-12-15T00:39:32.582Z,80.41
2018-12-15T00:40:32.589Z,80.79
2018-12-15T00:41:32.817Z,80.6
2018-12-15T00:42:32.574Z,81.26
2018-12-15T00:43:32.786Z,81.07
2018-12-15T00:44:32.786Z,80.51
2018-12-15T00:45:32.518Z,80.32
2018-12-15T00:46:32.515Z,80.51
2018-12-15T00:47:32.488Z,80.41
2018-12-15T00:48:32.734Z,80.79
2018-12-15T00:49:32.716Z,80.41
2018-12-15T00:50:32.716Z,80.04
2018-12-15T00:51:32.704Z,79.75
2018-12-15T00:52:32.693Z,79.75
2018-12-15T00:53:32.434Z,79.66
2018-12-15T00:54:32.664Z,79.94
2018-12-15T00:55:32.648Z,79.66
2018-12-15T00:56:32.654Z,80.32
2018-12-15T00:57:32.631Z,80.32
2018-12-15T00:58:32.616Z,80.04
2018-12-15T00:59:32.600Z,80.04
2018-12-15T01:00:32.581Z,80.41
2018-12-15T01:01:32.588Z,80.04
2018-12-15T01:02:32.307Z,80.13
2018-12-15T01:03:32.302Z,80.13
2018-12-15T01:04:34.127Z,80.32
2018-12-15T01:05:32.530Z,81.07
2018-12-15T01:06:32.508Z,81.26
2018-12-15T01:07:32.491Z,80.32
2018-12-15T01:08:32.241Z,80.32
2018-12-15T01:09:32.471Z,80.13
2018-12-15T01:10:32.458Z,80.22
2018-12-15T01:11:32.451Z,79.56
2018-12-15T01:12:32.248Z,79.85
2018-12-15T01:13:32.440Z,79.66
2018-12-15T01:14:32.414Z,79.66
2018-12-15T01:15:32.153Z,79.75
2018-12-15T01:16:32.397Z,80.22
2018-12-15T01:17:32.382Z,79.85
2018-12-15T01:18:32.130Z,79.09
2018-12-15T01:19:32.106Z,78.99
2018-12-15T01:20:32.341Z,78.8
2018-12-15T01:21:32.343Z,78.71
2018-12-15T01:22:32.070Z,78.71
2018-12-15T01:23:32.308Z,79.37
2018-12-15T01:24:32.296Z,78.8
2018-12-15T01:25:32.285Z,78.52
2018-12-15T01:26:32.038Z,78.71
2018-12-15T01:27:32.010Z,78.71
2018-12-15T01:28:32.014Z,79.28
2018-12-15T01:29:32.235Z,79.75
2018-12-15T01:30:32.013Z,79.56
2018-12-15T01:31:32.219Z,79.56
2018-12-15T01:32:31.959Z,79.85
2018-12-15T01:33:32.192Z,79.09
2018-12-15T01:34:32.740Z,78.9
2018-12-15T01:35:32.166Z,78.9
2018-12-15T01:36:31.904Z,78.9
2018-12-15T01:37:31.893Z,78.71
2018-12-15T01:38:32.137Z,79.28
2018-12-15T01:39:32.116Z,79.66
2018-12-15T01:40:31.858Z,79.47
2018-12-15T01:41:32.107Z,79.37
2018-12-15T01:42:31.839Z,79.66
2018-12-15T01:43:31.844Z,79.47
2018-12-15T01:44:32.061Z,79.09
2018-12-15T01:45:32.054Z,78.52
2018-12-15T01:46:32.044Z,78.23
2018-12-15T01:47:31.792Z,78.61
2018-12-15T01:48:31.791Z,78.71
2018-12-15T01:49:32.000Z,79.28
2018-12-15T01:50:32.002Z,79.18
2018-12-15T01:51:31.983Z,79.09
2018-12-15T01:52:31.740Z,78.99
2018-12-15T01:53:31.959Z,79.37
2018-12-15T01:54:31.696Z,79.37
2018-12-15T01:55:31.931Z,80.22
2018-12-15T01:56:31.920Z,80.41
2018-12-15T01:57:31.911Z,80.04
2018-12-15T01:58:31.647Z,79.28
2018-12-15T01:59:31.897Z,79.33
2018-12-15T02:00:31.873Z,79.05
2018-12-15T02:01:31.613Z,79.71
2018-12-15T02:02:31.848Z,79.43
2018-12-15T02:03:31.830Z,80.37
2018-12-15T02:04:31.577Z,80.08
2018-12-15T02:05:31.582Z,80.75
2018-12-15T02:06:31.801Z,80.56
2018-12-15T02:07:31.790Z,80.56
2018-12-15T02:08:31.783Z,80.98
2018-12-15T02:09:31.768Z,80.88
2018-12-15T02:10:31.502Z,81.07
2018-12-15T02:11:31.733Z,80.41
2018-12-15T02:12:31.727Z,79.75
2018-12-15T02:13:31.715Z,79.85
2018-12-15T02:14:31.458Z,80.22
2018-12-15T02:15:31.692Z,80.32
2018-12-15T02:16:31.433Z,80.41
2018-12-15T02:17:36.165Z,80.13
2018-12-15T02:18:31.664Z,79.94
2018-12-15T02:19:31.412Z,80.22
2018-12-15T02:20:31.384Z,80.13
2018-12-15T02:21:31.698Z,80.32
2018-12-15T02:22:31.608Z,79.75
2018-12-15T02:23:31.595Z,79.37
2018-12-15T02:24:31.599Z,79.37
2018-12-15T02:25:31.324Z,79.37
2018-12-15T02:26:31.560Z,79.28
2018-12-15T02:27:31.553Z,79.28
2018-12-15T02:28:31.557Z,79.28
2018-12-15T02:29:31.281Z,79.18
2018-12-15T02:30:31.534Z,78.99
2018-12-15T02:31:31.573Z,78.99
2018-12-15T02:32:31.509Z,78.9
2018-12-15T02:33:31.248Z,79.18
2018-12-15T02:34:31.467Z,79.37
2018-12-15T02:35:31.217Z,79.18
2018-12-15T02:36:31.447Z,79.28
2018-12-15T02:37:31.181Z,79.18
2018-12-15T02:38:31.179Z,79.09
2018-12-15T02:39:31.418Z,79.28
2018-12-15T02:40:31.407Z,79.09
2018-12-15T02:41:31.138Z,78.9
2018-12-15T02:42:31.124Z,78.99
2018-12-15T02:43:31.113Z,78.71
2018-12-15T02:44:31.364Z,79.37
2018-12-15T02:45:31.346Z,78.8
2018-12-15T02:46:31.084Z,79.37
2018-12-15T02:47:31.315Z,79.66
2018-12-15T02:48:31.058Z,79.75
2018-12-15T02:49:31.042Z,80.13
2018-12-15T02:50:31.282Z,80.22
2018-12-15T02:51:31.022Z,80.41
2018-12-15T02:52:31.004Z,80.22
2018-12-15T02:53:31.005Z,80.13
2018-12-15T02:54:31.234Z,79.66
2018-12-15T02:55:30.996Z,78.9
2018-12-15T02:56:31.235Z,78.71
2018-12-15T02:57:31.191Z,78.52
2018-12-15T02:58:31.191Z,78.33
2018-12-15T02:59:31.178Z,79.18
2018-12-15T03:00:31.169Z,80.32
2018-12-15T03:01:31.148Z,79.56
2018-12-15T03:02:31.134Z,79.18
2018-12-15T03:03:31.122Z,79.09
2018-12-15T03:04:30.862Z,79.09
2018-12-15T03:05:30.855Z,79.18
2018-12-15T03:06:31.091Z,78.9
2018-12-15T03:07:31.082Z,79.66
2018-12-15T03:08:30.816Z,79.85
2018-12-15T03:09:30.800Z,80.32
2018-12-15T03:10:30.794Z,79.66
2018-12-15T03:11:31.022Z,79.56
2018-12-15T03:12:30.771Z,79.56
2018-12-15T03:13:31.012Z,79.56
2018-12-15T03:14:31.031Z,79.37
2018-12-15T03:15:31.002Z,79.37
2018-12-15T03:16:30.728Z,78.9
2018-12-15T03:17:30.816Z,78.9
2018-12-15T03:18:30.711Z,79.56
2018-12-15T03:19:30.949Z,79.75
2018-12-15T03:20:30.928Z,79.66
2018-12-15T03:21:30.667Z,79.37
2018-12-15T03:22:30.894Z,79.18
2018-12-15T03:23:30.649Z,78.61
2018-12-15T03:24:30.876Z,78.99
2018-12-15T03:25:30.861Z,79.28
2018-12-15T03:26:30.616Z,79.09
2018-12-15T03:27:30.719Z,79.66
2018-12-15T03:28:30.832Z,79.66
2018-12-15T03:29:30.817Z,78.8
2018-12-15T03:30:30.812Z,79.47
2018-12-15T03:31:30.809Z,79.09
2018-12-15T03:32:30.820Z,78.9
2018-12-15T03:33:30.771Z,78.61
2018-12-15T03:34:30.548Z,78.9
2018-12-15T03:35:33.210Z,79.18
2018-12-15T03:36:30.495Z,79.56
2018-12-15T03:37:30.512Z,79.66
2018-12-15T03:38:30.462Z,79.37
2018-12-15T03:39:30.467Z,79.56
2018-12-15T03:40:30.465Z,79.09
2018-12-15T03:41:30.673Z,79.47
2018-12-15T03:42:30.688Z,80.22
2018-12-15T03:43:30.419Z,79.56
2018-12-15T03:44:30.397Z,79.75
2018-12-15T03:45:30.634Z,79.66
2018-12-15T03:46:30.399Z,79.75
2018-12-15T03:47:30.614Z,80.13
2018-12-15T03:48:30.392Z,79.85
2018-12-15T03:49:30.344Z,79.37
2018-12-15T03:50:30.348Z,79.47
2018-12-15T03:51:30.570Z,79.37
2018-12-15T03:52:30.627Z,79.47
2018-12-15T03:53:30.542Z,79.75
2018-12-15T03:54:30.581Z,79.75
2018-12-15T03:55:30.550Z,80.13
2018-12-15T03:56:30.504Z,80.41
2018-12-15T03:57:30.240Z,80.41
2018-12-15T03:58:30.516Z,80.13
2018-12-15T03:59:30.481Z,79.75
2018-12-15T04:00:30.205Z,80.22
2018-12-15T04:01:30.446Z,79.66
2018-12-15T04:02:30.191Z,79.85
2018-12-15T04:03:30.441Z,79.37
2018-12-15T04:04:30.415Z,79.09
2018-12-15T04:05:30.432Z,79.18
2018-12-15T04:06:30.415Z,79.28
2018-12-15T04:07:30.416Z,79.37
2018-12-15T04:08:30.373Z,79.66
2018-12-15T04:09:30.358Z,79.37
2018-12-15T04:10:30.361Z,80.04
2018-12-15T04:11:30.137Z,79.75
2018-12-15T04:12:30.352Z,79.56
2018-12-15T04:13:30.320Z,79.66
2018-12-15T04:14:30.043Z,79.37
2018-12-15T04:15:30.286Z,80.32
2018-12-15T04:16:30.275Z,80.32
2018-12-15T04:17:30.263Z,80.04
2018-12-15T04:18:30.242Z,80.13
2018-12-15T04:19:30.246Z,80.13
2018-12-15T04:20:30.226Z,80.13
2018-12-15T04:21:29.962Z,80.04
2018-12-15T04:22:30.205Z,80.13
2018-12-15T04:23:30.192Z,80.13
2018-12-15T04:24:30.170Z,80.04
2018-12-15T04:25:30.186Z,80.32
2018-12-15T04:26:30.154Z,79.66
2018-12-15T04:27:29.889Z,80.32
2018-12-15T04:28:29.877Z,79.94
2018-12-15T04:29:30.119Z,80.04
2018-12-15T04:30:29.863Z,79.66
2018-12-15T04:31:29.847Z,79.28
2018-12-15T04:32:30.080Z,79.28
2018-12-15T04:33:30.075Z,79.37
2018-12-15T04:34:29.805Z,79.37
2018-12-15T04:35:30.056Z,79.09
2018-12-15T04:36:30.044Z,79.28
2018-12-15T04:37:29.770Z,78.99
2018-12-15T04:38:29.762Z,79.66
2018-12-15T04:39:29.796Z,80.04
2018-12-15T04:40:29.743Z,79.75
2018-12-15T04:41:29.983Z,79.75
2018-12-15T04:42:29.961Z,80.32
2018-12-15T04:43:29.954Z,79.56
2018-12-15T04:44:29.704Z,79.56
2018-12-15T04:45:29.707Z,79.56
2018-12-15T04:46:29.956Z,79.28
2018-12-15T04:47:29.666Z,78.99
2018-12-15T04:48:29.892Z,79.18
2018-12-15T04:49:29.884Z,79.37
2018-12-15T04:50:29.620Z,78.71
2018-12-15T04:51:29.860Z,78.99
2018-12-15T04:52:29.848Z,78.61
2018-12-15T04:53:29.884Z,78.71
2018-12-15T04:54:29.834Z,78.61
2018-12-15T04:55:29.567Z,79.09
2018-12-15T04:56:29.559Z,79.09
2018-12-15T04:57:29.536Z,79.66
2018-12-15T04:58:29.528Z,79.85
2018-12-15T04:59:29.778Z,80.13
2018-12-15T05:00:29.522Z,80.88
2018-12-15T05:01:29.502Z,80.88
2018-12-15T05:02:29.488Z,80.51
2018-12-15T05:03:29.476Z,80.13
2018-12-15T05:04:29.703Z,81.17
2018-12-15T05:05:29.451Z,80.98
2018-12-15T05:06:30.249Z,81.07
2018-12-15T05:07:29.668Z,81.07
2018-12-15T05:08:29.422Z,80.51
2018-12-15T05:09:29.644Z,80.6
2018-12-15T05:10:29.651Z,80.69
2018-12-15T05:11:29.626Z,80.69
2018-12-15T05:12:29.622Z,80.6
2018-12-15T05:13:29.608Z,80.32
2018-12-15T05:14:29.598Z,80.51
2018-12-15T05:15:29.588Z,80.98
2018-12-15T05:16:29.330Z,80.88
2018-12-15T05:17:29.305Z,80.69
2018-12-15T05:18:29.535Z,79.94
2018-12-15T05:19:29.532Z,80.04
2018-12-15T05:20:29.526Z,80.32
2018-12-15T05:21:29.525Z,80.32
2018-12-15T05:22:29.490Z,80.51
2018-12-15T05:23:29.231Z,80.32
2018-12-15T05:24:29.482Z,80.04
2018-12-15T05:25:29.455Z,80.41
2018-12-15T05:26:29.461Z,80.22
2018-12-15T05:27:29.432Z,81.26
2018-12-15T05:28:29.437Z,80.41
2018-12-15T05:29:29.163Z,80.98
2018-12-15T05:30:29.413Z,80.51
2018-12-15T05:31:29.383Z,81.26
2018-12-15T05:32:29.369Z,80.51
2018-12-15T05:33:29.428Z,80.32
2018-12-15T05:34:29.353Z,80.13
2018-12-15T05:35:29.344Z,79.94
2018-12-15T05:36:29.224Z,79.85
2018-12-15T05:37:29.309Z,80.6
2018-12-15T05:38:29.310Z,81.17
2018-12-15T05:39:29.296Z,81.64
2018-12-15T05:40:29.341Z,81.17
2018-12-15T05:41:29.271Z,80.79
2018-12-15T05:42:29.253Z,80.69
2018-12-15T05:43:29.245Z,80.88
2018-12-15T05:44:29.236Z,80.6
2018-12-15T05:45:29.229Z,80.04
2018-12-15T05:46:29.221Z,80.32
2018-12-15T05:47:29.206Z,80.13
2018-12-15T05:48:29.204Z,79.66
2018-12-15T05:49:29.185Z,79.94
2018-12-15T05:50:29.162Z,80.04
2018-12-15T05:51:29.180Z,80.6
2018-12-15T05:52:29.145Z,80.98
2018-12-15T05:53:29.135Z,81.07
2018-12-15T05:54:28.896Z,80.88
2018-12-15T05:55:28.856Z,81.07
2018-12-15T05:56:28.855Z,80.79
2018-12-15T05:57:29.080Z,80.13
2018-12-15T05:58:29.064Z,80.13
2018-12-15T05:59:29.052Z,80.51
2018-12-15T06:00:29.049Z,80.88
2018-12-15T06:01:28.782Z,80.88
2018-12-15T06:02:29.018Z,80.79
2018-12-15T06:03:29.013Z,81.45
2018-12-15T06:04:28.990Z,80.69
2018-12-15T06:05:28.990Z,81.45
2018-12-15T06:06:29.674Z,81.64
2018-12-15T06:07:28.958Z,80.88
2018-12-15T06:08:28.950Z,81.07
2018-12-15T06:09:28.938Z,80.88
2018-12-15T06:10:28.928Z,81.07
2018-12-15T06:11:28.673Z,80.88
2018-12-15T06:12:28.902Z,80.6
2018-12-15T06:13:28.885Z,80.6
2018-12-15T06:14:28.900Z,80.79
2018-12-15T06:15:28.868Z,81.26
2018-12-15T06:16:28.867Z,81.45
2018-12-15T06:17:28.845Z,81.45
2018-12-15T06:18:34.162Z,81.26
2018-12-15T06:19:28.580Z,81.26
2018-12-15T06:20:28.807Z,81.17
2018-12-15T06:21:28.584Z,81.64
2018-12-15T06:22:28.783Z,81.36
2018-12-15T06:23:28.773Z,81.36
2018-12-15T06:24:28.774Z,81.26
2018-12-15T06:25:28.747Z,81.74
2018-12-15T06:26:28.732Z,82.02
2018-12-15T06:27:28.722Z,81.36
2018-12-15T06:28:28.470Z,81.17
2018-12-15T06:29:28.460Z,80.79
2018-12-15T06:30:28.448Z,81.07
2018-12-15T06:31:28.690Z,80.79
2018-12-15T06:32:28.666Z,80.79
2018-12-15T06:33:28.651Z,80.79
2018-12-15T06:34:28.639Z,80.98
2018-12-15T06:35:28.634Z,80.41
2018-12-15T06:36:28.368Z,80.51
2018-12-15T06:37:28.604Z,80.41
2018-12-15T06:38:28.594Z,80.32
2018-12-15T06:39:28.583Z,80.32
2018-12-15T06:40:28.582Z,80.88
2018-12-15T06:41:28.562Z,80.79
2018-12-15T06:42:28.564Z,80.88
2018-12-15T06:43:28.290Z,81.07
2018-12-15T06:44:28.526Z,80.88
2018-12-15T06:45:28.522Z,81.17
2018-12-15T06:46:28.503Z,81.45
2018-12-15T06:47:28.253Z,81.17
2018-12-15T06:48:28.484Z,81.26
2018-12-15T06:49:28.221Z,81.07
2018-12-15T06:50:28.204Z,81.26
2018-12-15T06:51:28.460Z,81.45
2018-12-15T06:52:28.188Z,81.26
2018-12-15T06:53:28.435Z,81.26
2018-12-15T06:54:28.407Z,80.88
2018-12-15T06:55:28.150Z,81.07
2018-12-15T06:56:28.396Z,80.69
2018-12-15T06:57:28.371Z,80.41
2018-12-15T06:58:28.451Z,79.94
2018-12-15T06:59:28.353Z,80.51
2018-12-15T07:00:28.343Z,80.6
2018-12-15T07:01:28.324Z,80.79
2018-12-15T07:02:28.310Z,80.88
2018-12-15T07:03:28.304Z,80.6
2018-12-15T07:04:28.048Z,81.26
2018-12-15T07:05:28.107Z,80.88
2018-12-15T07:06:28.362Z,80.88
2018-12-15T07:07:28.251Z,80.88
2018-12-15T07:08:28.257Z,81.07
2018-12-15T07:09:28.001Z,81.26
2018-12-15T07:10:27.970Z,81.17
2018-12-15T07:11:28.207Z,80.98
2018-12-15T07:12:28.005Z,80.98
2018-12-15T07:13:27.956Z,80.98
2018-12-15T07:14:27.931Z,81.26
2018-12-15T07:15:28.172Z,80.88
2018-12-15T07:16:27.900Z,80.41
2018-12-15T07:17:27.901Z,80.41
2018-12-15T07:18:28.137Z,80.69
2018-12-15T07:19:27.863Z,80.88
2018-12-15T07:20:27.847Z,80.88
2018-12-15T07:21:28.088Z,80.6
2018-12-15T07:22:27.826Z,80.41
2018-12-15T07:23:28.063Z,80.04
2018-12-15T07:24:27.807Z,80.13
2018-12-15T07:25:27.796Z,79.75
2018-12-15T07:26:28.042Z,80.04
2018-12-15T07:27:28.036Z,80.22
2018-12-15T07:28:27.758Z,80.32
2018-12-15T07:29:27.745Z,80.41
2018-12-15T07:30:27.992Z,81.07
2018-12-15T07:31:27.721Z,81.36
2018-12-15T07:32:27.961Z,81.26
2018-12-15T07:33:27.700Z,81.26
2018-12-15T07:34:27.691Z,81.26
2018-12-15T07:35:27.925Z,80.88
2018-12-15T07:36:27.667Z,81.17
2018-12-15T07:37:27.677Z,80.98
2018-12-15T07:38:27.643Z,80.69
2018-12-15T07:39:28.522Z,80.98
2018-12-15T07:40:27.620Z,80.69
2018-12-15T07:41:27.607Z,80.41
2018-12-15T07:42:27.595Z,80.41
2018-12-15T07:43:27.834Z,80.88
2018-12-15T07:44:27.833Z,80.88
2018-12-15T07:45:27.562Z,80.79
2018-12-15T07:46:27.798Z,81.07
2018-12-15T07:47:27.542Z,80.69
2018-12-15T07:48:27.526Z,81.45
2018-12-15T07:49:27.778Z,82.12
2018-12-15T07:50:27.503Z,82.21
2018-12-15T07:51:27.486Z,82.21
2018-12-15T07:52:27.470Z,81.17
2018-12-15T07:53:27.466Z,81.36
2018-12-15T07:54:27.452Z,80.22
2018-12-15T07:55:27.736Z,79.66
2018-12-15T07:56:27.431Z,80.32
2018-12-15T07:57:27.418Z,80.41
2018-12-15T07:58:27.437Z,80.32
2018-12-15T07:59:27.651Z,80.13
2018-12-15T08:00:27.634Z,80.6
2018-12-15T08:01:27.619Z,80.79
2018-12-15T08:02:27.624Z,80.51
2018-12-15T08:03:27.626Z,79.94
2018-12-15T08:04:27.580Z,80.04
2018-12-15T08:05:27.572Z,80.13
2018-12-15T08:06:27.308Z,79.66
2018-12-15T08:07:27.553Z,79.56
2018-12-15T08:08:27.530Z,79.85
2018-12-15T08:09:27.522Z,80.04
2018-12-15T08:10:27.535Z,79.75
2018-12-15T08:11:27.503Z,79.47
2018-12-15T08:12:27.518Z,78.9
2018-12-15T08:13:27.238Z,79.56
2018-12-15T08:14:27.467Z,79.18
2018-12-15T08:15:27.457Z,78.99
2018-12-15T08:16:27.447Z,78.9
2018-12-15T08:17:27.425Z,79.28
2018-12-15T08:18:27.173Z,79.66
2018-12-15T08:19:27.171Z,79.47
2018-12-15T08:20:27.400Z,79.09
2018-12-15T08:21:27.136Z,80.22
2018-12-15T08:22:28.462Z,80.22
2018-12-15T08:23:27.353Z,79.85
2018-12-15T08:24:27.350Z,79.47
2018-12-15T08:25:27.347Z,79.75
2018-12-15T08:26:27.322Z,80.22
2018-12-15T08:27:27.321Z,79.85
2018-12-15T08:28:27.050Z,79.56
2018-12-15T08:29:27.044Z,78.99
2018-12-15T08:30:27.273Z,78.99
2018-12-15T08:31:27.014Z,79.09
2018-12-15T08:32:27.255Z,78.9
2018-12-15T08:33:27.254Z,78.52
2018-12-15T08:34:26.975Z,78.05
2018-12-15T08:35:27.222Z,77.29
2018-12-15T08:36:27.205Z,77.67
2018-12-15T08:37:27.194Z,77.95
2018-12-15T08:38:27.198Z,77.48
2018-12-15T08:39:27.181Z,77.2
2018-12-15T08:40:26.933Z,77.1
2018-12-15T08:41:27.155Z,77.67
2018-12-15T08:42:27.133Z,78.14
2018-12-15T08:43:27.123Z,77.86
2018-12-15T08:44:26.871Z,77.48
2018-12-15T08:45:26.861Z,77.67
2018-12-15T08:46:27.088Z,77.76
2018-12-15T08:47:27.095Z,78.05
2018-12-15T08:48:26.822Z,77.67
2018-12-15T08:49:27.083Z,77.29
2018-12-15T08:50:27.033Z,77.86
2018-12-15T08:51:26.782Z,77.86
2018-12-15T08:52:26.767Z,77.29
2018-12-15T08:53:27.003Z,77.39
2018-12-15T08:54:27.001Z,77.1
2018-12-15T08:55:26.985Z,77.39
2018-12-15T08:56:26.959Z,77.39
2018-12-15T08:57:26.964Z,77.39
2018-12-15T08:58:26.971Z,77.29
2018-12-15T08:59:26.684Z,76.57
2018-12-15T09:00:26.928Z,76
2018-12-15T09:01:26.659Z,76.48
2018-12-15T09:02:26.646Z,76.72
2018-12-15T09:03:26.641Z,76.44
2018-12-15T09:04:26.870Z,77.2
2018-12-15T09:05:26.879Z,77.48
2018-12-15T09:06:26.601Z,77.23
2018-12-15T09:07:26.797Z,77.04
2018-12-15T09:08:26.835Z,76.57
2018-12-15T09:09:26.812Z,76.38
2018-12-15T09:10:26.548Z,76.38
2018-12-15T09:11:26.543Z,76.19
2018-12-15T09:12:26.777Z,76.67
2018-12-15T09:13:26.513Z,76.38
2018-12-15T09:14:26.516Z,76.1
2018-12-15T09:15:26.737Z,76.63
2018-12-15T09:16:28.912Z,77.58
2018-12-15T09:17:26.718Z,78.05
2018-12-15T09:18:26.714Z,77.95
2018-12-15T09:19:26.474Z,78.42
2018-12-15T09:20:26.433Z,78.42
2018-12-15T09:21:26.427Z,78.61
2018-12-15T09:22:26.665Z,78.42
2018-12-15T09:23:26.647Z,78.33
2018-12-15T09:24:26.633Z,77.86
2018-12-15T09:25:26.635Z,77.86
2018-12-15T09:26:26.606Z,77.86
2018-12-15T09:27:26.595Z,77.7
2018-12-15T09:28:26.334Z,77.89
2018-12-15T09:29:26.596Z,78.05
2018-12-15T09:30:26.326Z,77.99
2018-12-15T09:31:26.296Z,77.42
2018-12-15T09:32:26.536Z,77.33
2018-12-15T09:33:26.540Z,77.33
2018-12-15T09:34:26.517Z,76.29
2018-12-15T09:35:26.499Z,76.48
2018-12-15T09:36:26.250Z,76.25
2018-12-15T09:37:26.523Z,77.01
2018-12-15T09:38:26.227Z,77.29
2018-12-15T09:39:26.468Z,77.76
2018-12-15T09:40:26.444Z,77.61
2018-12-15T09:41:26.425Z,77.14
2018-12-15T09:42:26.418Z,76.95
2018-12-15T09:43:26.407Z,76.57
2018-12-15T09:44:26.382Z,76.67
2018-12-15T09:45:26.388Z,76.25
2018-12-15T09:46:26.375Z,76.29
2018-12-15T09:47:26.361Z,76.53
2018-12-15T09:48:26.099Z,76.57
2018-12-15T09:49:26.332Z,77.23
2018-12-15T09:50:26.074Z,77.04
2018-12-15T09:51:26.330Z,76.48
2018-12-15T09:52:26.097Z,75.72
2018-12-15T09:53:26.363Z,76.06
2018-12-15T09:54:26.022Z,76.76
2018-12-15T09:55:26.260Z,76.67
2018-12-15T09:56:26.265Z,77.04
2018-12-15T09:57:26.255Z,77.48
2018-12-15T09:58:25.976Z,77.61
2018-12-15T09:59:25.966Z,77.67
2018-12-15T10:00:25.955Z,77.89
2018-12-15T10:01:25.961Z,77.04
2018-12-15T10:02:25.950Z,77.14
2018-12-15T10:03:26.166Z,77.23
2018-12-15T10:04:25.941Z,76.95
2018-12-15T10:05:26.146Z,76.57
2018-12-15T10:06:25.882Z,76.48
2018-12-15T10:07:26.244Z,76.76
2018-12-15T10:08:25.861Z,76.67
2018-12-15T10:09:28.306Z,75.62
2018-12-15T10:10:25.836Z,76
2018-12-15T10:11:25.831Z,75.62
2018-12-15T10:12:25.823Z,75.91
2018-12-15T10:13:25.801Z,75.91
2018-12-15T10:14:26.036Z,76.1
2018-12-15T10:15:26.022Z,76
2018-12-15T10:16:26.021Z,75.53
2018-12-15T10:17:26.002Z,75.91
2018-12-15T10:18:25.747Z,75.81
2018-12-15T10:19:26.658Z,76.1
2018-12-15T10:20:25.986Z,75.43
2018-12-15T10:21:25.710Z,75.24
2018-12-15T10:22:26.016Z,75.24
2018-12-15T10:23:25.926Z,75.81
2018-12-15T10:24:25.925Z,75.24
2018-12-15T10:25:25.912Z,75.81
2018-12-15T10:26:25.652Z,76.34
2018-12-15T10:27:25.883Z,77.29
2018-12-15T10:28:25.867Z,77.23
2018-12-15T10:29:25.860Z,77.23
2018-12-15T10:30:25.845Z,77.04
2018-12-15T10:31:25.585Z,76.57
2018-12-15T10:32:25.584Z,76.38
2018-12-15T10:33:25.814Z,76.38
2018-12-15T10:34:25.564Z,76.57
2018-12-15T10:35:25.543Z,77.04
2018-12-15T10:36:25.548Z,76.76
2018-12-15T10:37:25.808Z,76.57
2018-12-15T10:38:25.527Z,75.91
2018-12-15T10:39:25.777Z,75.53
2018-12-15T10:40:25.478Z,75.91
2018-12-15T10:41:25.719Z,76.1
2018-12-15T10:42:25.770Z,75.43
2018-12-15T10:43:25.711Z,75.15
2018-12-15T10:44:25.695Z,76
2018-12-15T10:45:25.426Z,76.29
2018-12-15T10:46:25.410Z,75.91
2018-12-15T10:47:25.665Z,75.34
2018-12-15T10:48:25.648Z,75.15
2018-12-15T10:49:30.618Z,75.05
2018-12-15T10:50:25.616Z,74.96
2018-12-15T10:51:25.611Z,75.43
2018-12-15T10:52:25.616Z,75.05
2018-12-15T10:53:25.340Z,75.15
2018-12-15T10:54:25.418Z,74.87
2018-12-15T10:55:25.318Z,75.43
2018-12-15T10:56:25.538Z,75.05
2018-12-15T10:57:25.550Z,75.43
2018-12-15T10:58:25.522Z,76
2018-12-15T10:59:25.530Z,76.1
2018-12-15T11:00:25.496Z,76
2018-12-15T11:01:25.237Z,75.15
2018-12-15T11:02:25.238Z,74.96
2018-12-15T11:03:25.466Z,74.77
2018-12-15T11:04:25.199Z,74.49
2018-12-15T11:05:25.280Z,74.68
2018-12-15T11:06:25.433Z,74.11
2018-12-15T11:07:25.176Z,74.77
2018-12-15T11:08:25.423Z,74.68
2018-12-15T11:09:25.395Z,74.87
2018-12-15T11:10:25.447Z,74.68
2018-12-15T11:11:25.367Z,75.43
2018-12-15T11:12:25.357Z,75.62
2018-12-15T11:13:25.104Z,75.81
2018-12-15T11:14:25.092Z,75.91
2018-12-15T11:15:25.326Z,75.05
2018-12-15T11:16:25.314Z,74.96
2018-12-15T11:17:25.304Z,74.49
2018-12-15T11:18:25.043Z,74.77
2018-12-15T11:19:25.288Z,74.77
2018-12-15T11:20:25.274Z,74.3
2018-12-15T11:21:25.007Z,74.4
2018-12-15T11:22:25.260Z,74.68
2018-12-15T11:23:25.247Z,74.77
2018-12-15T11:24:25.226Z,74.96
2018-12-15T11:25:25.219Z,74.68
2018-12-15T11:26:25.197Z,74.58
2018-12-15T11:27:25.200Z,74.96
2018-12-15T11:28:25.177Z,74.4
2018-12-15T11:29:25.175Z,74.87
2018-12-15T11:30:25.172Z,75.34
2018-12-15T11:31:25.142Z,75.62
2018-12-15T11:32:25.132Z,74.49
2018-12-15T11:33:25.120Z,73.54
2018-12-15T11:34:25.117Z,73.45
2018-12-15T11:35:24.855Z,74.4
2018-12-15T11:36:24.849Z,74.96
2018-12-15T11:37:25.077Z,74.77
2018-12-15T11:38:25.067Z,74.77
2018-12-15T11:39:25.057Z,74.68
2018-12-15T11:40:25.040Z,74.96
2018-12-15T11:41:25.055Z,74.77
2018-12-15T11:42:24.774Z,74.87
2018-12-15T11:43:25.016Z,74.77
2018-12-15T11:44:24.745Z,76.19
2018-12-15T11:45:24.993Z,76.38
2018-12-15T11:46:24.975Z,75.81
2018-12-15T11:47:24.965Z,76.1
2018-12-15T11:48:24.956Z,75.15
2018-12-15T11:49:24.691Z,74.96
2018-12-15T11:50:24.934Z,74.49
2018-12-15T11:51:24.965Z,74.87
2018-12-15T11:52:24.658Z,74.3
2018-12-15T11:53:24.894Z,73.92
2018-12-15T11:54:24.885Z,75.15
2018-12-15T11:55:24.883Z,75.62
2018-12-15T11:56:24.877Z,76.1
2018-12-15T11:57:24.846Z,75.53
2018-12-15T11:58:24.606Z,75.53
2018-12-15T11:59:24.591Z,75.91
2018-12-15T12:00:24.828Z,75.34
2018-12-15T12:01:24.803Z,75.34
2018-12-15T12:02:24.546Z,75.81
2018-12-15T12:03:24.784Z,75.43
2018-12-15T12:04:24.769Z,75.15
2018-12-15T12:05:24.755Z,74.77
2018-12-15T12:06:24.756Z,74.87
2018-12-15T12:07:24.485Z,74.3
2018-12-15T12:08:24.717Z,74.11
2018-12-15T12:09:24.725Z,73.35
2018-12-15T12:10:24.715Z,73.16
2018-12-15T12:11:24.459Z,73.64
2018-12-15T12:12:24.677Z,74.02
2018-12-15T12:13:24.663Z,74.02
2018-12-15T12:14:24.663Z,73.83
2018-12-15T12:15:24.654Z,74.77
2018-12-15T12:16:24.632Z,75.53
2018-12-15T12:17:24.624Z,76
2018-12-15T12:18:24.605Z,75.43
2018-12-15T12:19:24.598Z,75.24
2018-12-15T12:20:24.584Z,74.87
2018-12-15T12:21:24.325Z,74.77
2018-12-15T12:22:24.564Z,75.53
2018-12-15T12:23:24.547Z,76
2018-12-15T12:24:24.290Z,75.43
2018-12-15T12:25:24.523Z,75.53
2018-12-15T12:26:24.263Z,74.77
2018-12-15T12:27:24.261Z,76.1
2018-12-15T12:28:24.489Z,76.48
2018-12-15T12:29:24.477Z,76
2018-12-15T12:30:24.473Z,75.05
2018-12-15T12:31:24.453Z,75.53
2018-12-15T12:32:24.442Z,75.43
2018-12-15T12:33:24.431Z,74.77
2018-12-15T12:34:24.424Z,74.3
2018-12-15T12:35:24.405Z,74.02
2018-12-15T12:36:24.402Z,74.21
2018-12-15T12:37:24.412Z,74.4
2018-12-15T12:38:24.368Z,74.02
2018-12-15T12:39:24.115Z,74.02
2018-12-15T12:40:24.361Z,73.54
2018-12-15T12:41:24.093Z,74.11
2018-12-15T12:42:24.130Z,74.11
2018-12-15T12:43:24.324Z,74.02
2018-12-15T12:44:24.307Z,74.02
2018-12-15T12:45:24.298Z,73.54
2018-12-15T12:46:24.306Z,73.73
2018-12-15T12:47:24.273Z,73.54
2018-12-15T12:48:24.014Z,74.3
2018-12-15T12:49:24.246Z,75.24
2018-12-15T12:50:24.238Z,74.87
2018-12-15T12:51:24.234Z,75.15
2018-12-15T12:52:24.215Z,75.43
2018-12-15T12:53:24.219Z,75.53
2018-12-15T12:54:23.947Z,75.15
2018-12-15T12:55:24.176Z,74.77